createdAt,value
2023-03-17T00:00:21.084Z,1006.32
2023-03-17T00:01:21.339Z,1006.34
2023-03-17T00:02:21.124Z,1006.40
2023-03-17T00:03:21.409Z,1006.38
2023-03-17T00:04:41.172Z,1006.47
2023-03-17T00:05:21.337Z,1006.44
2023-03-17T00:06:21.099Z,1006.49
2023-03-17T00:07:21.358Z,1006.51
2023-03-17T00:08:21.104Z,1006.49
2023-03-17T00:09:20.888Z,1006.51
2023-03-17T00:10:21.095Z,1006.51
2023-03-17T00:11:20.856Z,1006.51
2023-03-17T00:12:21.135Z,1006.51
2023-03-17T00:13:20.895Z,1006.53
2023-03-17T00:14:41.145Z,1006.53
2023-03-17T00:15:20.883Z,1006.56
2023-03-17T00:16:21.176Z,1006.53
2023-03-17T00:17:20.936Z,1006.53
2023-03-17T00:18:21.163Z,1006.47
2023-03-17T00:19:20.915Z,1006.48
2023-03-17T00:20:21.152Z,1006.44
2023-03-17T00:21:22.384Z,1006.41
2023-03-17T00:22:21.704Z,1006.35
2023-03-17T00:23:22.465Z,1006.27
2023-03-17T00:24:40.788Z,1006.22
2023-03-17T00:25:22.491Z,1006.23
2023-03-17T00:26:21.502Z,1006.12
2023-03-17T00:27:22.565Z,1006.07
2023-03-17T00:28:21.698Z,1006.04
2023-03-17T00:29:20.784Z,1006.04
2023-03-17T00:30:22.471Z,1006.01
2023-03-17T00:31:22.313Z,1005.98
2023-03-17T00:32:21.974Z,1005.99
2023-03-17T00:33:21.696Z,1006.01
2023-03-17T00:34:40.754Z,1006.06
2023-03-17T00:35:22.477Z,1006.07
2023-03-17T00:36:21.477Z,1006.17
2023-03-17T00:37:22.103Z,1006.20
2023-03-17T00:38:22.375Z,1006.25
2023-03-17T00:39:22.171Z,1006.26
2023-03-17T00:40:22.457Z,1006.31
2023-03-17T00:41:22.240Z,1006.30
2023-03-17T00:42:22.007Z,1006.28
2023-03-17T00:43:22.308Z,1006.24
2023-03-17T00:44:40.636Z,1006.20
2023-03-17T00:45:22.350Z,1006.17
2023-03-17T00:46:21.384Z,1006.19
2023-03-17T00:47:20.760Z,1006.17
2023-03-17T00:48:22.375Z,1006.15
2023-03-17T00:50:11.981Z,1006.21
2023-03-17T00:51:11.682Z,1006.22
2023-03-17T00:52:12.021Z,1006.21
2023-03-17T00:53:11.686Z,1006.23
2023-03-17T00:54:11.939Z,1006.22
2023-03-17T00:55:11.680Z,1006.19
2023-03-17T00:56:11.964Z,1006.18
2023-03-17T00:57:11.725Z,1006.18
2023-03-17T00:58:11.484Z,1006.17
2023-03-17T00:59:33.397Z,1006.24
2023-03-17T01:00:11.692Z,1006.20
2023-03-17T01:01:11.484Z,1006.19
2023-03-17T01:02:11.748Z,1006.18
2023-03-17T01:03:11.436Z,1006.14
2023-03-17T01:04:11.712Z,1006.16
2023-03-17T01:05:11.441Z,1006.13
2023-03-17T01:06:11.712Z,1006.13
2023-03-17T01:07:11.437Z,1006.12
2023-03-17T01:08:11.675Z,1006.18
2023-03-17T01:09:32.162Z,1006.17
2023-03-17T01:10:11.723Z,1006.13
2023-03-17T01:11:11.469Z,1006.13
2023-03-17T01:12:11.728Z,1006.12
2023-03-17T01:13:11.473Z,1006.13
2023-03-17T01:14:11.737Z,1006.15
2023-03-17T01:15:11.477Z,1006.16
2023-03-17T01:16:11.796Z,1006.10
2023-03-17T01:17:11.477Z,1006.17
2023-03-17T01:18:11.240Z,1006.13
2023-03-17T01:19:32.247Z,1006.09
2023-03-17T01:20:11.289Z,1006.08
2023-03-17T01:21:11.532Z,1006.02
2023-03-17T01:22:11.289Z,1006.02
2023-03-17T01:23:11.522Z,1006.00
2023-03-17T01:24:11.287Z,1005.98
2023-03-17T01:25:11.508Z,1005.97
2023-03-17T01:26:11.261Z,1005.95
2023-03-17T01:27:11.473Z,1005.92
2023-03-17T01:28:11.232Z,1005.90
2023-03-17T01:29:32.512Z,1005.95
2023-03-17T01:30:11.329Z,1005.95
2023-03-17T01:31:11.597Z,1005.96
2023-03-17T01:32:11.368Z,1005.90
2023-03-17T01:33:11.139Z,1005.91
2023-03-17T01:34:11.398Z,1005.87
2023-03-17T01:35:11.131Z,1005.84
2023-03-17T01:36:11.501Z,1005.88
2023-03-17T01:37:11.145Z,1005.83
2023-03-17T01:38:11.417Z,1005.85
2023-03-17T01:39:31.202Z,1005.83
2023-03-17T01:40:11.520Z,1005.81
2023-03-17T01:41:11.319Z,1005.81
2023-03-17T01:42:12.475Z,1005.86
2023-03-17T01:43:11.729Z,1005.87
2023-03-17T01:44:12.485Z,1005.89
2023-03-17T01:45:12.746Z,1005.89
2023-03-17T01:46:11.122Z,1005.87
2023-03-17T01:47:12.798Z,1005.93
2023-03-17T01:48:11.856Z,1005.90
2023-03-17T01:49:31.415Z,1005.89
2023-03-17T01:50:12.627Z,1005.89
2023-03-17T01:51:12.369Z,1005.90
2023-03-17T01:52:11.218Z,1005.83
2023-03-17T01:53:10.975Z,1005.86
2023-03-17T01:54:11.237Z,1005.85
2023-03-17T01:55:11.009Z,1005.82
2023-03-17T01:56:12.711Z,1005.83
2023-03-17T01:57:11.038Z,1005.79
2023-03-17T01:58:12.705Z,1005.78
2023-03-17T01:59:31.019Z,1005.74
2023-03-17T02:00:11.294Z,1005.76
2023-03-17T02:01:11.769Z,1005.80
2023-03-17T02:02:12.724Z,1005.69
2023-03-17T02:03:11.052Z,1005.70
2023-03-17T02:04:10.843Z,1005.69
2023-03-17T02:05:12.520Z,1005.65
2023-03-17T02:06:10.832Z,1005.73
2023-03-17T02:07:11.131Z,1005.67
2023-03-17T02:08:11.809Z,1005.67
2023-03-17T02:09:32.131Z,1005.61
2023-03-17T02:10:10.888Z,1005.64
2023-03-17T02:11:11.120Z,1005.61
2023-03-17T02:12:10.901Z,1005.62
2023-03-17T02:13:11.177Z,1005.65
2023-03-17T02:14:10.921Z,1005.65
2023-03-17T02:15:10.663Z,1005.60
2023-03-17T02:16:10.928Z,1005.61
2023-03-17T02:17:10.653Z,1005.59
2023-03-17T02:18:10.901Z,1005.53
2023-03-17T02:19:31.188Z,1005.51
2023-03-17T02:20:10.935Z,1005.47
2023-03-17T02:21:10.685Z,1005.47
2023-03-17T02:22:10.941Z,1005.49
2023-03-17T02:23:11.692Z,1005.45
2023-03-17T02:24:10.952Z,1005.51
2023-03-17T02:25:10.711Z,1005.50
2023-03-17T02:26:10.953Z,1005.51
2023-03-17T02:27:10.704Z,1005.48
2023-03-17T02:28:10.956Z,1005.49
2023-03-17T02:29:30.734Z,1005.43
2023-03-17T02:30:10.980Z,1005.38
2023-03-17T02:31:10.807Z,1005.41
2023-03-17T02:32:10.501Z,1005.43
2023-03-17T02:33:10.753Z,1005.42
2023-03-17T02:34:10.495Z,1005.38
2023-03-17T02:35:10.734Z,1005.41
2023-03-17T02:36:10.555Z,1005.44
2023-03-17T02:37:10.794Z,1005.38
2023-03-17T02:38:10.580Z,1005.40
2023-03-17T02:39:30.862Z,1005.37
2023-03-17T02:40:10.588Z,1005.40
2023-03-17T02:41:10.847Z,1005.39
2023-03-17T02:42:10.622Z,1005.36
2023-03-17T02:43:10.834Z,1005.32
2023-03-17T02:44:10.574Z,1005.32
2023-03-17T02:45:10.844Z,1005.30
2023-03-17T02:46:10.778Z,1005.32
2023-03-17T02:47:10.344Z,1005.28
2023-03-17T02:48:10.610Z,1005.26
2023-03-17T02:49:30.504Z,1005.34
2023-03-17T02:50:10.582Z,1005.29
2023-03-17T02:51:10.336Z,1005.29
2023-03-17T02:52:10.622Z,1005.24
2023-03-17T02:53:10.354Z,1005.23
2023-03-17T02:54:10.591Z,1005.25
2023-03-17T02:55:10.354Z,1005.20
2023-03-17T02:56:10.598Z,1005.26
2023-03-17T02:57:10.326Z,1005.26
2023-03-17T02:58:10.596Z,1005.27
2023-03-17T02:59:30.362Z,1005.25
2023-03-17T03:00:10.606Z,1005.26
2023-03-17T03:01:10.392Z,1005.25
2023-03-17T03:02:10.673Z,1005.28
2023-03-17T03:03:10.442Z,1005.27
2023-03-17T03:04:10.646Z,1005.31
2023-03-17T03:05:10.392Z,1005.29
2023-03-17T03:06:10.147Z,1005.29
2023-03-17T03:07:10.376Z,1005.25
2023-03-17T03:08:10.134Z,1005.20
2023-03-17T03:09:30.394Z,1005.22
2023-03-17T03:10:10.133Z,1005.20
2023-03-17T03:11:10.363Z,1005.20
2023-03-17T03:12:10.204Z,1005.21
2023-03-17T03:13:10.362Z,1005.24
2023-03-17T03:14:10.117Z,1005.28
2023-03-17T03:15:10.375Z,1005.24
2023-03-17T03:16:10.201Z,1005.19
2023-03-17T03:17:10.455Z,1005.19
2023-03-17T03:18:10.265Z,1005.19
2023-03-17T03:19:30.526Z,1005.25
2023-03-17T03:20:11.274Z,1005.30
2023-03-17T03:21:10.086Z,1005.35
2023-03-17T03:22:10.402Z,1005.37
2023-03-17T03:23:10.141Z,1005.41
2023-03-17T03:24:10.453Z,1005.33
2023-03-17T03:25:10.210Z,1005.32
2023-03-17T03:26:10.015Z,1005.28
2023-03-17T03:27:10.266Z,1005.26
2023-03-17T03:28:10.091Z,1005.29
2023-03-17T03:29:30.346Z,1005.27
2023-03-17T03:30:10.098Z,1005.29
2023-03-17T03:31:10.473Z,1005.35
2023-03-17T03:32:10.177Z,1005.37
2023-03-17T03:33:09.938Z,1005.37
2023-03-17T03:34:10.250Z,1005.43
2023-03-17T03:35:10.055Z,1005.35
2023-03-17T03:36:10.378Z,1005.36
2023-03-17T03:37:10.090Z,1005.40
2023-03-17T03:38:09.880Z,1005.33
2023-03-17T03:39:30.325Z,1005.38
2023-03-17T03:40:10.004Z,1005.42
2023-03-17T03:41:10.266Z,1005.42
2023-03-17T03:42:10.030Z,1005.48
2023-03-17T03:43:21.849Z,1005.51
2023-03-17T03:44:11.085Z,1005.49
2023-03-17T03:45:09.851Z,1005.41
2023-03-17T03:46:10.189Z,1005.38
2023-03-17T03:47:09.932Z,1005.38
2023-03-17T03:48:10.221Z,1005.35
2023-03-17T03:49:30.028Z,1005.37
2023-03-17T03:50:09.758Z,1005.40
2023-03-17T03:51:10.068Z,1005.42
2023-03-17T03:52:09.857Z,1005.45
2023-03-17T03:53:10.135Z,1005.46
2023-03-17T03:54:09.927Z,1005.48
2023-03-17T03:55:10.723Z,1005.50
2023-03-17T03:56:10.008Z,1005.52
2023-03-17T03:57:09.754Z,1005.56
2023-03-17T03:58:09.985Z,1005.56
2023-03-17T03:59:29.744Z,1005.60
2023-03-17T04:00:10.009Z,1005.59
2023-03-17T04:01:09.751Z,1005.62
2023-03-17T04:02:10.014Z,1005.58
2023-03-17T04:03:09.768Z,1005.59
2023-03-17T04:04:10.014Z,1005.55
2023-03-17T04:05:09.769Z,1005.50
2023-03-17T04:06:10.025Z,1005.50
2023-03-17T04:07:09.769Z,1005.49
2023-03-17T04:08:09.531Z,1005.57
2023-03-17T04:09:29.796Z,1005.58
2023-03-17T04:10:09.527Z,1005.63
2023-03-17T04:11:09.792Z,1005.65
2023-03-17T04:12:09.550Z,1005.68
2023-03-17T04:13:09.804Z,1005.66
2023-03-17T04:14:09.565Z,1005.63
2023-03-17T04:15:09.806Z,1005.63
2023-03-17T04:16:09.644Z,1005.60
2023-03-17T04:17:09.832Z,1005.55
2023-03-17T04:18:09.599Z,1005.54
2023-03-17T04:19:29.860Z,1005.53
2023-03-17T04:20:09.575Z,1005.58
2023-03-17T04:21:09.818Z,1005.57
2023-03-17T04:22:09.575Z,1005.55
2023-03-17T04:23:09.801Z,1005.62
2023-03-17T04:24:09.576Z,1005.64
2023-03-17T04:25:09.325Z,1005.64
2023-03-17T04:26:09.596Z,1005.61
2023-03-17T04:27:09.317Z,1005.66
2023-03-17T04:28:09.581Z,1005.64
2023-03-17T04:29:29.333Z,1005.62
2023-03-17T04:30:09.556Z,1005.60
2023-03-17T04:31:09.306Z,1005.60
2023-03-17T04:32:09.589Z,1005.57
2023-03-17T04:33:09.359Z,1005.60
2023-03-17T04:34:09.591Z,1005.57
2023-03-17T04:35:09.335Z,1005.61
2023-03-17T04:36:09.681Z,1005.63
2023-03-17T04:37:09.325Z,1005.64
2023-03-17T04:38:09.606Z,1005.69
2023-03-17T04:39:29.336Z,1005.70
2023-03-17T04:40:09.577Z,1005.72
2023-03-17T04:41:09.333Z,1005.74
2023-03-17T04:42:09.589Z,1005.74
2023-03-17T04:43:09.357Z,1005.73
2023-03-17T04:44:09.584Z,1005.69
2023-03-17T04:45:09.341Z,1005.66
2023-03-17T04:46:09.672Z,1005.61
2023-03-17T04:47:09.330Z,1005.59
2023-03-17T04:48:09.616Z,1005.61
2023-03-17T04:49:29.856Z,1005.61
2023-03-17T04:50:10.604Z,1005.57
2023-03-17T04:51:11.650Z,1005.52
2023-03-17T04:52:09.178Z,1005.56
2023-03-17T04:53:09.427Z,1005.54
2023-03-17T04:54:09.160Z,1005.50
2023-03-17T04:55:09.434Z,1005.50
2023-03-17T04:56:09.150Z,1005.47
2023-03-17T04:57:10.392Z,1005.43
2023-03-17T04:58:10.380Z,1005.44
2023-03-17T04:59:29.430Z,1005.46
2023-03-17T05:00:09.137Z,1005.45
2023-03-17T05:01:09.420Z,1005.52
2023-03-17T05:02:09.174Z,1005.49
2023-03-17T05:03:25.755Z,1005.50
2023-03-17T05:04:14.566Z,1005.53
2023-03-17T05:05:10.414Z,1005.45
2023-03-17T05:06:09.142Z,1005.50
2023-03-17T05:07:09.009Z,1005.45
2023-03-17T05:08:09.149Z,1005.41
2023-03-17T05:09:29.421Z,1005.42
2023-03-17T05:10:09.141Z,1005.44
2023-03-17T05:11:09.904Z,1005.37
2023-03-17T05:12:09.138Z,1005.48
2023-03-17T05:13:08.894Z,1005.45
2023-03-17T05:14:09.170Z,1005.47
2023-03-17T05:15:08.892Z,1005.45
2023-03-17T05:16:09.188Z,1005.41
2023-03-17T05:17:08.888Z,1005.45
2023-03-17T05:18:09.136Z,1005.47
2023-03-17T05:19:28.939Z,1005.39
2023-03-17T05:20:09.167Z,1005.47
2023-03-17T05:21:08.896Z,1005.43
2023-03-17T05:22:09.136Z,1005.37
2023-03-17T05:23:09.739Z,1005.39
2023-03-17T05:24:09.166Z,1005.43
2023-03-17T05:25:08.898Z,1005.38
2023-03-17T05:26:09.148Z,1005.45
2023-03-17T05:27:08.912Z,1005.45
2023-03-17T05:28:09.159Z,1005.48
2023-03-17T05:29:28.949Z,1005.48
2023-03-17T05:30:08.669Z,1005.46
2023-03-17T05:31:10.979Z,1005.47
2023-03-17T05:32:08.696Z,1005.47
2023-03-17T05:33:08.961Z,1005.51
2023-03-17T05:34:08.724Z,1005.49
2023-03-17T05:35:08.967Z,1005.44
2023-03-17T05:36:08.756Z,1005.45
2023-03-17T05:37:08.968Z,1005.50
2023-03-17T05:38:09.728Z,1005.49
2023-03-17T05:39:28.987Z,1005.48
2023-03-17T05:40:08.726Z,1005.45
2023-03-17T05:41:08.958Z,1005.45
2023-03-17T05:42:08.710Z,1005.44
2023-03-17T05:43:08.963Z,1005.43
2023-03-17T05:44:08.737Z,1005.45
2023-03-17T05:45:08.983Z,1005.42
2023-03-17T05:46:08.834Z,1005.41
2023-03-17T05:47:09.007Z,1005.42
2023-03-17T05:48:08.712Z,1005.43
2023-03-17T05:49:29.003Z,1005.47
2023-03-17T05:50:08.717Z,1005.47
2023-03-17T05:51:08.501Z,1005.42
2023-03-17T05:52:08.752Z,1005.45
2023-03-17T05:53:08.509Z,1005.47
2023-03-17T05:54:08.771Z,1005.53
2023-03-17T05:55:08.550Z,1005.53
2023-03-17T05:56:09.691Z,1005.56
2023-03-17T05:57:08.511Z,1005.51
2023-03-17T05:58:08.788Z,1005.53
2023-03-17T05:59:28.518Z,1005.51
2023-03-17T06:00:11.700Z,1005.52
2023-03-17T06:01:09.482Z,1005.49
2023-03-17T06:02:09.838Z,1005.47
2023-03-17T06:03:09.529Z,1005.43
2023-03-17T06:04:08.781Z,1005.44
2023-03-17T06:05:09.505Z,1005.41
2023-03-17T06:06:09.299Z,1005.40
2023-03-17T06:07:09.510Z,1005.43
2023-03-17T06:08:08.339Z,1005.45
2023-03-17T06:09:28.591Z,1005.45
2023-03-17T06:10:09.277Z,1005.50
2023-03-17T06:11:08.575Z,1005.50
2023-03-17T06:12:09.365Z,1005.51
2023-03-17T06:13:08.594Z,1005.49
2023-03-17T06:14:08.336Z,1005.48
2023-03-17T06:15:08.611Z,1005.45
2023-03-17T06:16:08.470Z,1005.48
2023-03-17T06:17:08.632Z,1005.54
2023-03-17T06:18:08.330Z,1005.55
2023-03-17T06:19:28.614Z,1005.57
2023-03-17T06:20:08.345Z,1005.57
2023-03-17T06:21:09.583Z,1005.57
2023-03-17T06:22:09.328Z,1005.55
2023-03-17T06:23:09.076Z,1005.59
2023-03-17T06:24:09.312Z,1005.58
2023-03-17T06:25:09.090Z,1005.61
2023-03-17T06:26:09.340Z,1005.60
2023-03-17T06:27:09.223Z,1005.62
2023-03-17T06:28:09.360Z,1005.64
2023-03-17T06:29:28.539Z,1005.65
2023-03-17T06:30:08.468Z,1005.64
2023-03-17T06:31:09.292Z,1005.63
2023-03-17T06:32:19.968Z,1005.68
2023-03-17T06:33:09.416Z,1005.65
2023-03-17T06:34:08.976Z,1005.65
2023-03-17T06:35:09.219Z,1005.67
2023-03-17T06:36:09.052Z,1005.69
2023-03-17T06:37:09.246Z,1005.62
2023-03-17T06:38:08.989Z,1005.59
2023-03-17T06:39:28.311Z,1005.55
2023-03-17T06:40:08.984Z,1005.62
2023-03-17T06:41:09.239Z,1005.52
2023-03-17T06:42:08.994Z,1005.57
2023-03-17T06:43:09.260Z,1005.58
2023-03-17T06:44:08.996Z,1005.56
2023-03-17T06:45:09.257Z,1005.60
2023-03-17T06:46:09.056Z,1005.58
2023-03-17T06:47:09.251Z,1005.57
2023-03-17T06:48:09.012Z,1005.62
2023-03-17T06:49:28.339Z,1005.65
2023-03-17T06:50:09.015Z,1005.65
2023-03-17T06:51:09.289Z,1005.62
2023-03-17T06:52:09.092Z,1005.55
2023-03-17T06:53:08.809Z,1005.59
2023-03-17T06:54:09.073Z,1005.55
2023-03-17T06:55:08.818Z,1005.50
2023-03-17T06:56:20.038Z,1005.51
2023-03-17T06:57:08.917Z,1005.53
2023-03-17T06:58:09.080Z,1005.51
2023-03-17T06:59:27.902Z,1005.50
2023-03-17T07:00:08.199Z,1005.51
2023-03-17T07:01:08.980Z,1005.44
2023-03-17T07:02:08.932Z,1005.48
2023-03-17T07:03:08.972Z,1005.50
2023-03-17T07:04:08.779Z,1005.55
2023-03-17T07:05:08.045Z,1005.58
2023-03-17T07:06:07.174Z,1005.58
2023-03-17T07:07:08.164Z,1005.58
2023-03-17T07:08:07.219Z,1005.54
2023-03-17T07:09:27.192Z,1005.47
2023-03-17T07:10:08.083Z,1005.47
2023-03-17T07:11:07.351Z,1005.52
2023-03-17T07:12:08.060Z,1005.53
2023-03-17T07:13:08.107Z,1005.54
2023-03-17T07:14:08.556Z,1005.53
2023-03-17T07:15:07.330Z,1005.49
2023-03-17T07:16:08.089Z,1005.49
2023-03-17T07:17:08.635Z,1005.42
2023-03-17T07:18:08.001Z,1005.45
2023-03-17T07:19:27.118Z,1005.44
2023-03-17T07:20:08.966Z,1005.48
2023-03-17T07:21:08.772Z,1005.48
2023-03-17T07:22:08.566Z,1005.48
2023-03-17T07:23:09.819Z,1005.51
2023-03-17T07:24:08.551Z,1005.51
2023-03-17T07:25:10.341Z,1005.54
2023-03-17T07:26:08.557Z,1005.56
2023-03-17T07:27:08.847Z,1005.57
2023-03-17T07:28:08.599Z,1005.52
2023-03-17T07:29:27.882Z,1005.47
2023-03-17T07:30:07.860Z,1005.46
2023-03-17T07:31:09.713Z,1005.40
2023-03-17T07:32:08.379Z,1005.43
2023-03-17T07:33:08.649Z,1005.42
2023-03-17T07:34:08.331Z,1005.46
2023-03-17T07:35:09.594Z,1005.50
2023-03-17T07:36:07.474Z,1005.46
2023-03-17T07:37:08.637Z,1005.44
2023-03-17T07:38:08.383Z,1005.46
2023-03-17T07:39:29.249Z,1005.43
2023-03-17T07:40:08.497Z,1005.44
2023-03-17T07:41:08.310Z,1005.46
2023-03-17T07:42:08.599Z,1005.43
2023-03-17T07:43:08.298Z,1005.42
2023-03-17T07:44:08.497Z,1005.41
2023-03-17T07:45:08.276Z,1005.42
2023-03-17T07:46:08.674Z,1005.43
2023-03-17T07:47:08.400Z,1005.48
2023-03-17T07:48:08.548Z,1005.47
2023-03-17T07:49:40.820Z,1005.46
2023-03-17T07:50:09.631Z,1005.44
2023-03-17T07:51:08.373Z,1005.45
2023-03-17T07:52:08.225Z,1005.43
2023-03-17T07:53:08.513Z,1005.47
2023-03-17T07:54:08.248Z,1005.48
2023-03-17T07:55:08.577Z,1005.48
2023-03-17T07:56:09.278Z,1005.54
2023-03-17T07:57:09.236Z,1005.55
2023-03-17T07:58:08.445Z,1005.50
2023-03-17T07:59:27.257Z,1005.47
2023-03-17T08:00:07.542Z,1005.47
2023-03-17T08:01:08.363Z,1005.45
2023-03-17T08:02:08.120Z,1005.44
2023-03-17T08:03:10.792Z,1005.38
2023-03-17T08:04:09.218Z,1005.35
2023-03-17T08:05:07.504Z,1005.30
2023-03-17T08:06:08.247Z,1005.29
2023-03-17T08:07:08.510Z,1005.29
2023-03-17T08:08:08.339Z,1005.34
2023-03-17T08:09:27.226Z,1005.34
2023-03-17T08:10:07.450Z,1005.30
2023-03-17T08:11:08.180Z,1005.29
2023-03-17T08:12:08.032Z,1005.32
2023-03-17T08:13:08.192Z,1005.38
2023-03-17T08:14:07.949Z,1005.34
2023-03-17T08:15:08.220Z,1005.35
2023-03-17T08:16:08.006Z,1005.34
2023-03-17T08:17:08.353Z,1005.34
2023-03-17T08:18:07.992Z,1005.40
2023-03-17T08:19:27.305Z,1005.47
2023-03-17T08:20:07.964Z,1005.50
2023-03-17T08:21:08.235Z,1005.52
2023-03-17T08:22:07.999Z,1005.49
2023-03-17T08:23:08.259Z,1005.52
2023-03-17T08:24:07.983Z,1005.54
2023-03-17T08:25:08.384Z,1005.57
2023-03-17T08:26:08.023Z,1005.61
2023-03-17T08:27:08.260Z,1005.65
2023-03-17T08:28:08.028Z,1005.65
2023-03-17T08:29:27.372Z,1005.62
2023-03-17T08:30:08.041Z,1005.60
2023-03-17T08:31:10.263Z,1005.56
2023-03-17T08:32:08.026Z,1005.54
2023-03-17T08:33:07.822Z,1005.45
2023-03-17T08:34:08.042Z,1005.43
2023-03-17T08:35:08.215Z,1005.38
2023-03-17T08:36:07.973Z,1005.32
2023-03-17T08:37:10.164Z,1005.31
2023-03-17T08:38:07.982Z,1005.25
2023-03-17T08:39:26.806Z,1005.27
2023-03-17T08:40:07.997Z,1005.25
2023-03-17T08:41:07.766Z,1005.24
2023-03-17T08:42:07.988Z,1005.23
2023-03-17T08:43:07.778Z,1005.27
2023-03-17T08:44:08.009Z,1005.26
2023-03-17T08:45:07.129Z,1005.22
2023-03-17T08:46:08.043Z,1005.15
2023-03-17T08:47:07.783Z,1005.13
2023-03-17T08:48:07.886Z,1005.13
2023-03-17T08:49:26.731Z,1005.12
2023-03-17T08:50:07.914Z,1005.13
2023-03-17T08:51:07.547Z,1005.11
2023-03-17T08:52:07.931Z,1005.14
2023-03-17T08:53:07.670Z,1005.17
2023-03-17T08:54:07.975Z,1005.14
2023-03-17T08:55:07.688Z,1005.15
2023-03-17T08:56:07.974Z,1005.20
2023-03-17T08:57:07.796Z,1005.18
2023-03-17T08:58:08.494Z,1005.22
2023-03-17T08:59:26.830Z,1005.20
2023-03-17T09:00:07.514Z,1005.19
2023-03-17T09:01:07.769Z,1005.16
2023-03-17T09:02:07.653Z,1005.14
2023-03-17T09:03:07.785Z,1005.04
2023-03-17T09:04:07.540Z,1005.05
2023-03-17T09:05:08.777Z,1005.11
2023-03-17T09:06:07.653Z,1005.05
2023-03-17T09:07:09.690Z,1005.02
2023-03-17T09:08:07.687Z,1005.04
2023-03-17T09:09:26.937Z,1005.01
2023-03-17T09:10:07.642Z,1005.02
2023-03-17T09:11:07.492Z,1005.03
2023-03-17T09:12:07.740Z,1005.02
2023-03-17T09:13:07.489Z,1005.03
2023-03-17T09:14:07.774Z,1005.00
2023-03-17T09:15:07.520Z,1005.07
2023-03-17T09:16:07.385Z,1005.07
2023-03-17T09:17:07.531Z,1005.04
2023-03-17T09:18:07.313Z,1005.03
2023-03-17T09:19:26.612Z,1005.09
2023-03-17T09:20:06.755Z,1005.10
2023-03-17T09:21:07.509Z,1005.17
2023-03-17T09:22:07.280Z,1005.14
2023-03-17T09:23:07.544Z,1005.14
2023-03-17T09:24:07.400Z,1005.18
2023-03-17T09:25:07.591Z,1005.17
2023-03-17T09:26:07.396Z,1005.27
2023-03-17T09:27:07.650Z,1005.22
2023-03-17T09:28:07.417Z,1005.17
2023-03-17T09:29:26.762Z,1005.10
2023-03-17T09:30:06.653Z,1005.04
2023-03-17T09:31:07.383Z,1004.93
2023-03-17T09:32:07.157Z,1004.94
2023-03-17T09:33:07.413Z,1004.96
2023-03-17T09:34:07.168Z,1004.98
2023-03-17T09:35:07.417Z,1005.01
2023-03-17T09:36:07.284Z,1004.98
2023-03-17T09:37:07.458Z,1004.95
2023-03-17T09:38:07.221Z,1004.88
2023-03-17T09:39:26.543Z,1004.85
2023-03-17T09:40:08.239Z,1004.85
2023-03-17T09:41:07.492Z,1004.86
2023-03-17T09:42:07.248Z,1005.02
2023-03-17T09:43:07.017Z,1005.05
2023-03-17T09:44:07.271Z,1005.03
2023-03-17T09:45:06.464Z,1004.96
2023-03-17T09:46:07.538Z,1004.93
2023-03-17T09:47:07.004Z,1004.94
2023-03-17T09:48:07.265Z,1004.89
2023-03-17T09:49:26.098Z,1004.96
2023-03-17T09:50:06.446Z,1004.93
2023-03-17T09:51:07.212Z,1005.00
2023-03-17T09:52:06.996Z,1005.03
2023-03-17T09:53:07.211Z,1005.08
2023-03-17T09:54:07.006Z,1005.05
2023-03-17T09:55:07.233Z,1005.15
2023-03-17T09:56:07.012Z,1005.09
2023-03-17T09:57:07.262Z,1005.07
2023-03-17T09:58:07.013Z,1005.06
2023-03-17T09:59:26.323Z,1005.02
2023-03-17T10:00:06.329Z,1005.04
2023-03-17T10:01:07.075Z,1005.03
2023-03-17T10:02:06.999Z,1005.09
2023-03-17T10:03:07.105Z,1005.08
2023-03-17T10:04:06.857Z,1005.02
2023-03-17T10:05:07.134Z,1005.00
2023-03-17T10:06:08.389Z,1005.04
2023-03-17T10:07:07.132Z,1005.00
2023-03-17T10:08:18.958Z,1005.01
2023-03-17T10:09:27.343Z,1005.03
2023-03-17T10:10:06.301Z,1005.10
2023-03-17T10:11:06.111Z,1005.09
2023-03-17T10:12:06.977Z,1005.14
2023-03-17T10:13:07.070Z,1005.08
2023-03-17T10:14:05.882Z,1005.15
2023-03-17T10:15:07.103Z,1005.14
2023-03-17T10:16:06.885Z,1005.15
2023-03-17T10:17:06.183Z,1005.13
2023-03-17T10:18:06.866Z,1005.14
2023-03-17T10:19:26.220Z,1005.03
2023-03-17T10:20:06.892Z,1005.11
2023-03-17T10:21:05.694Z,1005.03
2023-03-17T10:22:07.043Z,1005.04
2023-03-17T10:23:06.643Z,1004.99
2023-03-17T10:24:06.900Z,1005.01
2023-03-17T10:25:06.660Z,1005.01
2023-03-17T10:26:06.918Z,1004.97
2023-03-17T10:27:06.737Z,1004.98
2023-03-17T10:28:08.939Z,1005.00
2023-03-17T10:29:25.775Z,1004.95
2023-03-17T10:30:06.008Z,1005.00
2023-03-17T10:31:06.814Z,1005.00
2023-03-17T10:32:06.548Z,1004.98
2023-03-17T10:33:06.942Z,1005.01
2023-03-17T10:34:06.569Z,1004.89
2023-03-17T10:35:06.805Z,1004.93
2023-03-17T10:36:07.046Z,1004.90
2023-03-17T10:37:06.881Z,1004.88
2023-03-17T10:38:14.293Z,1004.96
2023-03-17T10:39:27.027Z,1004.99
2023-03-17T10:40:06.573Z,1005.06
2023-03-17T10:41:06.819Z,1005.03
2023-03-17T10:42:06.578Z,1005.09
2023-03-17T10:43:06.810Z,1005.12
2023-03-17T10:44:06.594Z,1005.06
2023-03-17T10:45:06.842Z,1005.02
2023-03-17T10:46:06.611Z,1004.98
2023-03-17T10:47:06.453Z,1005.02
2023-03-17T10:48:07.624Z,1005.01
2023-03-17T10:49:25.453Z,1004.99
2023-03-17T10:50:05.822Z,1005.00
2023-03-17T10:51:06.567Z,1005.00
2023-03-17T10:52:06.363Z,1005.06
2023-03-17T10:53:06.642Z,1005.00
2023-03-17T10:54:06.356Z,1005.07
2023-03-17T10:55:06.615Z,1004.97
2023-03-17T10:56:06.365Z,1004.99
2023-03-17T10:57:06.633Z,1004.94
2023-03-17T10:58:06.350Z,1004.85
2023-03-17T10:59:25.778Z,1004.88
2023-03-17T11:00:05.733Z,1004.78
2023-03-17T11:01:06.498Z,1004.75
2023-03-17T11:02:06.230Z,1004.74
2023-03-17T11:03:06.489Z,1004.66
2023-03-17T11:04:06.265Z,1004.65
2023-03-17T11:05:39.051Z,1004.65
2023-03-17T11:06:06.257Z,1004.61
2023-03-17T11:07:06.558Z,1004.60
2023-03-17T11:08:07.309Z,1004.60
2023-03-17T11:09:25.665Z,1004.58
2023-03-17T11:10:06.360Z,1004.56
2023-03-17T11:11:06.625Z,1004.60
2023-03-17T11:12:06.483Z,1004.64
2023-03-17T11:13:06.167Z,1004.67
2023-03-17T11:14:06.407Z,1004.65
2023-03-17T11:15:06.154Z,1004.63
2023-03-17T11:16:06.477Z,1004.59
2023-03-17T11:17:06.306Z,1004.61
2023-03-17T11:18:06.402Z,1004.63
2023-03-17T11:19:25.215Z,1004.64
2023-03-17T11:20:05.601Z,1004.66
2023-03-17T11:21:06.313Z,1004.70
2023-03-17T11:22:06.028Z,1004.67
2023-03-17T11:23:08.867Z,1004.71
2023-03-17T11:25:41.118Z,1004.76
2023-03-17T11:25:47.415Z,1004.73
2023-03-17T11:27:24.714Z,1004.70
2023-03-17T11:27:47.453Z,1004.67
2023-03-17T11:38:52.487Z,1004.73
2023-03-17T11:40:50.154Z,1004.45
2023-03-17T11:40:56.566Z,1004.40
2023-03-17T11:42:21.839Z,1004.42
2023-03-17T11:45:21.092Z,1004.37
2023-03-17T11:45:25.911Z,1004.33
2023-03-17T11:46:28.239Z,1004.38
2023-03-17T11:48:09.101Z,1004.35
2023-03-17T11:48:26.679Z,1004.34
2023-03-17T11:50:05.258Z,1004.32
2023-03-17T11:50:26.677Z,1004.25
2023-03-17T11:51:47.134Z,1004.18
2023-03-17T11:52:26.736Z,1004.25
2023-03-17T11:53:26.464Z,1004.24
2023-03-17T11:54:26.750Z,1004.20
2023-03-17T11:55:26.487Z,1004.21
2023-03-17T11:56:26.765Z,1004.16
2023-03-17T11:57:26.491Z,1004.19
2023-03-17T11:58:26.771Z,1004.19
2023-03-17T11:59:26.530Z,1004.20
2023-03-17T12:00:26.305Z,1004.22
2023-03-17T12:01:47.131Z,1004.12
2023-03-17T12:02:26.366Z,1004.21
2023-03-17T12:03:26.729Z,1004.07
2023-03-17T12:04:26.444Z,1004.09
2023-03-17T12:05:26.647Z,1004.12
2023-03-17T12:06:26.414Z,1004.10
2023-03-17T12:07:26.662Z,1004.10
2023-03-17T12:08:26.437Z,1004.12
2023-03-17T12:09:28.188Z,1004.15
2023-03-17T12:10:26.446Z,1004.24
2023-03-17T12:11:47.758Z,1004.30
2023-03-17T12:12:26.546Z,1004.31
2023-03-17T12:13:26.297Z,1004.25
2023-03-17T12:14:26.561Z,1004.28
2023-03-17T12:15:26.332Z,1004.29
2023-03-17T12:16:27.540Z,1004.27
2023-03-17T12:17:27.354Z,1004.27
2023-03-17T12:18:26.584Z,1004.36